sensor_id;sensor_type;location;lat;lon;timestamp;temperature;humidity
64987;DHT22;67903;52.108;9.358;2023-04-23T00:02:06;15.20;72.10
64987;DHT22;67903;52.108;9.358;2023-04-23T00:04:56;15.10;71.70
64987;DHT22;67903;52.108;9.358;2023-04-23T00:07:48;15.10;72.30
64987;DHT22;67903;52.108;9.358;2023-04-23T00:10:36;15.00;72.20
64987;DHT22;67903;52.108;9.358;2023-04-23T00:13:23;15.00;72.70
64987;DHT22;67903;52.108;9.358;2023-04-23T00:16:11;15.00;73.00
64987;DHT22;67903;52.108;9.358;2023-04-23T00:18:58;15.00;72.50
64987;DHT22;67903;52.108;9.358;2023-04-23T00:21:45;15.10;71.90
64987;DHT22;67903;52.108;9.358;2023-04-23T00:24:32;15.10;71.90
64987;DHT22;67903;52.108;9.358;2023-04-23T00:27:22;15.20;71.40
64987;DHT22;67903;52.108;9.358;2023-04-23T00:30:09;15.30;71.10
64987;DHT22;67903;52.108;9.358;2023-04-23T00:32:57;15.20;71.10
64987;DHT22;67903;52.108;9.358;2023-04-23T00:35:44;15.20;70.30
64987;DHT22;67903;52.108;9.358;2023-04-23T00:38:31;15.10;69.00
64987;DHT22;67903;52.108;9.358;2023-04-23T00:41:18;15.00;69.00
64987;DHT22;67903;52.108;9.358;2023-04-23T00:44:06;14.90;68.70
64987;DHT22;67903;52.108;9.358;2023-04-23T00:46:53;14.90;69.10
64987;DHT22;67903;52.108;9.358;2023-04-23T00:49:41;14.80;69.40
64987;DHT22;67903;52.108;9.358;2023-04-23T00:52:28;14.70;70.40
64987;DHT22;67903;52.108;9.358;2023-04-23T00:55:16;14.60;71.00
64987;DHT22;67903;52.108;9.358;2023-04-23T00:58:03;14.60;71.30
64987;DHT22;67903;52.108;9.358;2023-04-23T01:00:52;14.50;71.60
64987;DHT22;67903;52.108;9.358;2023-04-23T01:03:41;14.50;71.80
64987;DHT22;67903;52.108;9.358;2023-04-23T01:06:29;14.50;72.00
64987;DHT22;67903;52.108;9.358;2023-04-23T01:09:17;14.40;71.30
64987;DHT22;67903;52.108;9.358;2023-04-23T01:12:05;14.30;70.90
64987;DHT22;67903;52.108;9.358;2023-04-23T01:14:52;14.30;70.90
64987;DHT22;67903;52.108;9.358;2023-04-23T01:17:39;14.20;71.10
64987;DHT22;67903;52.108;9.358;2023-04-23T01:20:27;14.20;71.30
64987;DHT22;67903;52.108;9.358;2023-04-23T01:23:16;14.20;71.50
64987;DHT22;67903;52.108;9.358;2023-04-23T01:26:03;14.10;71.80
64987;DHT22;67903;52.108;9.358;2023-04-23T01:28:50;14.20;71.50
64987;DHT22;67903;52.108;9.358;2023-04-23T01:31:39;14.10;71.10
64987;DHT22;67903;52.108;9.358;2023-04-23T01:34:30;14.00;71.00
64987;DHT22;67903;52.108;9.358;2023-04-23T01:37:18;14.00;71.00
64987;DHT22;67903;52.108;9.358;2023-04-23T01:40:06;13.90;71.10
64987;DHT22;67903;52.108;9.358;2023-04-23T01:42:55;13.90;71.10
64987;DHT22;67903;52.108;9.358;2023-04-23T01:45:42;13.90;71.20
64987;DHT22;67903;52.108;9.358;2023-04-23T01:48:29;13.90;71.40
64987;DHT22;67903;52.108;9.358;2023-04-23T01:51:17;13.90;72.00
64987;DHT22;67903;52.108;9.358;2023-04-23T01:54:04;13.80;72.30
64987;DHT22;67903;52.108;9.358;2023-04-23T01:56:51;13.70;73.00
64987;DHT22;67903;52.108;9.358;2023-04-23T01:59:41;13.60;73.20
64987;DHT22;67903;52.108;9.358;2023-04-23T02:02:28;13.60;73.70
64987;DHT22;67903;52.108;9.358;2023-04-23T02:05:17;13.50;74.70
64987;DHT22;67903;52.108;9.358;2023-04-23T02:08:05;13.50;75.40
64987;DHT22;67903;52.108;9.358;2023-04-23T02:10:52;13.40;76.00
64987;DHT22;67903;52.108;9.358;2023-04-23T02:13:39;13.20;77.40
64987;DHT22;67903;52.108;9.358;2023-04-23T02:16:26;13.10;77.70
64987;DHT22;67903;52.108;9.358;2023-04-23T02:19:14;13.00;78.40
64987;DHT22;67903;52.108;9.358;2023-04-23T02:22:02;12.90;79.00
64987;DHT22;67903;52.108;9.358;2023-04-23T02:24:50;12.90;77.20
64987;DHT22;67903;52.108;9.358;2023-04-23T02:27:38;12.90;77.00
64987;DHT22;67903;52.108;9.358;2023-04-23T02:30:25;12.80;77.20
64987;DHT22;67903;52.108;9.358;2023-04-23T02:33:13;12.80;77.30
64987;DHT22;67903;52.108;9.358;2023-04-23T02:36:00;12.80;77.30
64987;DHT22;67903;52.108;9.358;2023-04-23T02:38:47;12.70;77.40
64987;DHT22;67903;52.108;9.358;2023-04-23T02:41:36;12.60;78.00
64987;DHT22;67903;52.108;9.358;2023-04-23T02:44:24;12.60;77.70
64987;DHT22;67903;52.108;9.358;2023-04-23T02:47:11;12.70;77.70
64987;DHT22;67903;52.108;9.358;2023-04-23T02:49:58;12.60;77.20
64987;DHT22;67903;52.108;9.358;2023-04-23T02:52:48;12.60;77.20
64987;DHT22;67903;52.108;9.358;2023-04-23T02:55:36;12.60;77.00
64987;DHT22;67903;52.108;9.358;2023-04-23T02:58:23;12.50;77.10
64987;DHT22;67903;52.108;9.358;2023-04-23T03:01:14;12.50;76.60
64987;DHT22;67903;52.108;9.358;2023-04-23T03:04:01;12.50;76.60
64987;DHT22;67903;52.108;9.358;2023-04-23T03:06:49;12.50;76.50
64987;DHT22;67903;52.108;9.358;2023-04-23T03:09:37;12.50;76.20
64987;DHT22;67903;52.108;9.358;2023-04-23T03:12:24;12.50;76.00
64987;DHT22;67903;52.108;9.358;2023-04-23T03:15:11;12.50;75.20
64987;DHT22;67903;52.108;9.358;2023-04-23T03:17:58;12.50;74.70
64987;DHT22;67903;52.108;9.358;2023-04-23T03:20:47;12.50;74.60
64987;DHT22;67903;52.108;9.358;2023-04-23T03:23:35;12.50;74.70
64987;DHT22;67903;52.108;9.358;2023-04-23T03:26:22;12.60;73.90
64987;DHT22;67903;52.108;9.358;2023-04-23T03:29:10;12.50;73.30
64987;DHT22;67903;52.108;9.358;2023-04-23T03:31:58;12.50;73.10
64987;DHT22;67903;52.108;9.358;2023-04-23T03:34:45;12.50;73.20
64987;DHT22;67903;52.108;9.358;2023-04-23T03:37:32;12.50;73.50
64987;DHT22;67903;52.108;9.358;2023-04-23T03:40:20;12.50;73.50
64987;DHT22;67903;52.108;9.358;2023-04-23T03:43:10;12.50;73.20
64987;DHT22;67903;52.108;9.358;2023-04-23T03:46:23;12.50;73.50
64987;DHT22;67903;52.108;9.358;2023-04-23T03:49:11;12.40;73.60
64987;DHT22;67903;52.108;9.358;2023-04-23T03:51:58;12.30;73.70
64987;DHT22;67903;52.108;9.358;2023-04-23T03:54:46;12.30;73.80
64987;DHT22;67903;52.108;9.358;2023-04-23T03:57:37;12.40;73.60
64987;DHT22;67903;52.108;9.358;2023-04-23T04:00:37;12.40;73.80
64987;DHT22;67903;52.108;9.358;2023-04-23T04:03:25;12.30;74.00
64987;DHT22;67903;52.108;9.358;2023-04-23T04:06:12;12.30;74.00
64987;DHT22;67903;52.108;9.358;2023-04-23T04:09:00;12.30;74.00
64987;DHT22;67903;52.108;9.358;2023-04-23T04:11:47;12.30;74.20
64987;DHT22;67903;52.108;9.358;2023-04-23T04:14:35;12.20;75.00
64987;DHT22;67903;52.108;9.358;2023-04-23T04:17:22;12.00;75.50
64987;DHT22;67903;52.108;9.358;2023-04-23T04:20:09;12.00;75.60
64987;DHT22;67903;52.108;9.358;2023-04-23T04:22:59;12.10;75.80
64987;DHT22;67903;52.108;9.358;2023-04-23T04:25:46;12.00;75.80
64987;DHT22;67903;52.108;9.358;2023-04-23T04:28:36;12.00;75.70
64987;DHT22;67903;52.108;9.358;2023-04-23T04:31:24;12.00;75.50
64987;DHT22;67903;52.108;9.358;2023-04-23T04:34:11;11.90;75.30
64987;DHT22;67903;52.108;9.358;2023-04-23T04:37:00;12.00;74.50
64987;DHT22;67903;52.108;9.358;2023-04-23T04:39:47;12.00;74.30
64987;DHT22;67903;52.108;9.358;2023-04-23T04:42:35;11.90;74.20
64987;DHT22;67903;52.108;9.358;2023-04-23T04:45:22;11.90;74.00
64987;DHT22;67903;52.108;9.358;2023-04-23T04:48:09;11.90;73.50
64987;DHT22;67903;52.108;9.358;2023-04-23T04:50:56;11.90;73.20
64987;DHT22;67903;52.108;9.358;2023-04-23T04:53:43;11.90;73.30
64987;DHT22;67903;52.108;9.358;2023-04-23T04:56:30;11.80;73.30
64987;DHT22;67903;52.108;9.358;2023-04-23T04:59:17;11.70;73.20
64987;DHT22;67903;52.108;9.358;2023-04-23T05:02:05;11.80;72.50
64987;DHT22;67903;52.108;9.358;2023-04-23T05:04:52;11.80;72.70
64987;DHT22;67903;52.108;9.358;2023-04-23T05:07:39;11.80;72.50
64987;DHT22;67903;52.108;9.358;2023-04-23T05:10:26;11.90;72.50
64987;DHT22;67903;52.108;9.358;2023-04-23T05:13:14;11.80;72.20
64987;DHT22;67903;52.108;9.358;2023-04-23T05:16:01;11.80;72.30
64987;DHT22;67903;52.108;9.358;2023-04-23T05:18:48;11.80;71.80
64987;DHT22;67903;52.108;9.358;2023-04-23T05:21:35;11.70;71.90
64987;DHT22;67903;52.108;9.358;2023-04-23T05:24:22;11.70;71.40
64987;DHT22;67903;52.108;9.358;2023-04-23T05:27:09;11.70;71.50
64987;DHT22;67903;52.108;9.358;2023-04-23T05:29:56;11.70;72.20
64987;DHT22;67903;52.108;9.358;2023-04-23T05:32:43;11.70;72.30
64987;DHT22;67903;52.108;9.358;2023-04-23T05:35:30;11.50;72.80
64987;DHT22;67903;52.108;9.358;2023-04-23T05:38:17;11.50;73.10
64987;DHT22;67903;52.108;9.358;2023-04-23T05:41:04;11.50;73.00
64987;DHT22;67903;52.108;9.358;2023-04-23T05:43:52;11.40;73.30
64987;DHT22;67903;52.108;9.358;2023-04-23T05:46:39;11.40;73.60
64987;DHT22;67903;52.108;9.358;2023-04-23T05:49:26;11.40;73.00
64987;DHT22;67903;52.108;9.358;2023-04-23T05:52:13;11.40;73.40
64987;DHT22;67903;52.108;9.358;2023-04-23T05:55:00;11.40;73.70
64987;DHT22;67903;52.108;9.358;2023-04-23T05:57:47;11.40;73.90
64987;DHT22;67903;52.108;9.358;2023-04-23T06:00:34;11.50;73.70
64987;DHT22;67903;52.108;9.358;2023-04-23T06:03:21;11.50;73.30
64987;DHT22;67903;52.108;9.358;2023-04-23T06:06:08;11.50;73.20
64987;DHT22;67903;52.108;9.358;2023-04-23T06:08:55;11.60;73.10
64987;DHT22;67903;52.108;9.358;2023-04-23T06:11:42;11.70;72.10
64987;DHT22;67903;52.108;9.358;2023-04-23T06:14:30;11.70;72.10
64987;DHT22;67903;52.108;9.358;2023-04-23T06:17:17;11.70;72.80
64987;DHT22;67903;52.108;9.358;2023-04-23T06:20:04;11.70;72.20
64987;DHT22;67903;52.108;9.358;2023-04-23T06:22:51;11.70;72.60
64987;DHT22;67903;52.108;9.358;2023-04-23T06:25:38;12.00;71.40
64987;DHT22;67903;52.108;9.358;2023-04-23T06:28:26;12.00;71.40
64987;DHT22;67903;52.108;9.358;2023-04-23T06:31:33;12.00;71.10
64987;DHT22;67903;52.108;9.358;2023-04-23T06:34:20;12.00;70.70
64987;DHT22;67903;52.108;9.358;2023-04-23T06:37:07;12.00;70.90
64987;DHT22;67903;52.108;9.358;2023-04-23T06:39:54;12.20;70.20
64987;DHT22;67903;52.108;9.358;2023-04-23T06:42:41;12.30;69.80
64987;DHT22;67903;52.108;9.358;2023-04-23T06:45:49;12.30;69.70
64987;DHT22;67903;52.108;9.358;2023-04-23T06:48:36;12.50;69.50
64987;DHT22;67903;52.108;9.358;2023-04-23T06:51:26;12.50;69.70
64987;DHT22;67903;52.108;9.358;2023-04-23T06:54:13;12.50;69.30
64987;DHT22;67903;52.108;9.358;2023-04-23T06:57:00;12.70;69.40
64987;DHT22;67903;52.108;9.358;2023-04-23T06:59:48;12.50;69.50
64987;DHT22;67903;52.108;9.358;2023-04-23T07:02:36;12.60;69.20
64987;DHT22;67903;52.108;9.358;2023-04-23T07:05:24;12.80;68.70
64987;DHT22;67903;52.108;9.358;2023-04-23T07:08:11;12.50;68.70
64987;DHT22;67903;52.108;9.358;2023-04-23T07:10:59;12.50;68.40
64987;DHT22;67903;52.108;9.358;2023-04-23T07:13:47;12.50;68.40
64987;DHT22;67903;52.108;9.358;2023-04-23T07:16:34;12.50;68.60
64987;DHT22;67903;52.108;9.358;2023-04-23T07:19:21;12.40;68.50
64987;DHT22;67903;52.108;9.358;2023-04-23T07:22:09;12.50;68.30
64987;DHT22;67903;52.108;9.358;2023-04-23T07:24:56;12.60;67.70
64987;DHT22;67903;52.108;9.358;2023-04-23T07:27:43;12.80;67.20
64987;DHT22;67903;52.108;9.358;2023-04-23T07:30:30;12.80;67.30
64987;DHT22;67903;52.108;9.358;2023-04-23T07:33:17;12.80;67.20
64987;DHT22;67903;52.108;9.358;2023-04-23T07:36:04;12.90;67.40
64987;DHT22;67903;52.108;9.358;2023-04-23T07:38:51;12.80;67.90
64987;DHT22;67903;52.108;9.358;2023-04-23T07:41:38;12.90;68.10
64987;DHT22;67903;52.108;9.358;2023-04-23T07:44:26;13.00;68.30
64987;DHT22;67903;52.108;9.358;2023-04-23T07:47:13;13.00;67.30
64987;DHT22;67903;52.108;9.358;2023-04-23T07:50:00;13.10;66.70
64987;DHT22;67903;52.108;9.358;2023-04-23T07:52:47;13.10;66.70
64987;DHT22;67903;52.108;9.358;2023-04-23T07:55:34;13.10;66.40
64987;DHT22;67903;52.108;9.358;2023-04-23T07:58:23;13.10;66.70
64987;DHT22;67903;52.108;9.358;2023-04-23T08:01:10;13.30;66.40
64987;DHT22;67903;52.108;9.358;2023-04-23T08:03:57;13.50;65.40
64987;DHT22;67903;52.108;9.358;2023-04-23T08:06:46;13.60;65.60
64987;DHT22;67903;52.108;9.358;2023-04-23T08:09:33;13.60;65.30
64987;DHT22;67903;52.108;9.358;2023-04-23T08:12:21;13.80;64.80
64987;DHT22;67903;52.108;9.358;2023-04-23T08:15:08;13.70;64.70
64987;DHT22;67903;52.108;9.358;2023-04-23T08:17:59;13.70;64.70
64987;DHT22;67903;52.108;9.358;2023-04-23T08:20:47;13.80;64.20
64987;DHT22;67903;52.108;9.358;2023-04-23T08:23:34;13.80;64.00
64987;DHT22;67903;52.108;9.358;2023-04-23T08:26:21;13.70;64.40
64987;DHT22;67903;52.108;9.358;2023-04-23T08:29:09;13.90;64.30
64987;DHT22;67903;52.108;9.358;2023-04-23T08:31:57;14.00;64.30
64987;DHT22;67903;52.108;9.358;2023-04-23T08:34:44;14.20;63.20
64987;DHT22;67903;52.108;9.358;2023-04-23T08:37:31;14.30;62.30
64987;DHT22;67903;52.108;9.358;2023-04-23T08:40:18;14.40;60.90
64987;DHT22;67903;52.108;9.358;2023-04-23T08:43:19;14.40;61.90
64987;DHT22;67903;52.108;9.358;2023-04-23T08:46:10;14.50;62.10
64987;DHT22;67903;52.108;9.358;2023-04-23T08:48:59;14.60;61.40
64987;DHT22;67903;52.108;9.358;2023-04-23T08:51:51;14.70;59.90
64987;DHT22;67903;52.108;9.358;2023-04-23T08:54:40;14.60;59.30
64987;DHT22;67903;52.108;9.358;2023-04-23T08:57:30;14.70;58.40
64987;DHT22;67903;52.108;9.358;2023-04-23T09:00:19;14.80;58.20
64987;DHT22;67903;52.108;9.358;2023-04-23T09:03:09;14.80;58.30
64987;DHT22;67903;52.108;9.358;2023-04-23T09:05:57;14.90;57.40
64987;DHT22;67903;52.108;9.358;2023-04-23T09:08:44;15.00;57.30
64987;DHT22;67903;52.108;9.358;2023-04-23T09:11:32;15.00;57.40
64987;DHT22;67903;52.108;9.358;2023-04-23T09:14:24;15.00;57.00
64987;DHT22;67903;52.108;9.358;2023-04-23T09:17:12;15.10;56.90
64987;DHT22;67903;52.108;9.358;2023-04-23T09:19:59;15.20;56.70
64987;DHT22;67903;52.108;9.358;2023-04-23T09:22:50;15.40;56.80
64987;DHT22;67903;52.108;9.358;2023-04-23T09:25:42;15.50;56.20
64987;DHT22;67903;52.108;9.358;2023-04-23T09:28:36;15.60;56.60
64987;DHT22;67903;52.108;9.358;2023-04-23T09:31:23;15.60;55.50
64987;DHT22;67903;52.108;9.358;2023-04-23T09:34:10;15.60;55.70
64987;DHT22;67903;52.108;9.358;2023-04-23T09:36:59;15.60;55.80
64987;DHT22;67903;52.108;9.358;2023-04-23T09:39:46;15.90;56.30
64987;DHT22;67903;52.108;9.358;2023-04-23T09:42:33;16.10;55.10
64987;DHT22;67903;52.108;9.358;2023-04-23T09:45:21;16.30;54.00
64987;DHT22;67903;52.108;9.358;2023-04-23T09:48:08;16.40;53.80
64987;DHT22;67903;52.108;9.358;2023-04-23T09:50:55;16.40;53.00
64987;DHT22;67903;52.108;9.358;2023-04-23T09:53:42;16.40;52.90
64987;DHT22;67903;52.108;9.358;2023-04-23T09:56:31;16.90;52.10
64987;DHT22;67903;52.108;9.358;2023-04-23T09:59:23;16.90;51.90
64987;DHT22;67903;52.108;9.358;2023-04-23T10:02:31;17.00;51.60
64987;DHT22;67903;52.108;9.358;2023-04-23T10:05:21;17.20;51.90
64987;DHT22;67903;52.108;9.358;2023-04-23T10:08:15;17.40;50.90
64987;DHT22;67903;52.108;9.358;2023-04-23T10:11:03;17.50;50.80
64987;DHT22;67903;52.108;9.358;2023-04-23T10:14:07;17.60;50.60
64987;DHT22;67903;52.108;9.358;2023-04-23T10:17:00;17.50;50.90
64987;DHT22;67903;52.108;9.358;2023-04-23T10:19:48;17.80;50.50
64987;DHT22;67903;52.108;9.358;2023-04-23T10:22:37;17.80;50.40
64987;DHT22;67903;52.108;9.358;2023-04-23T10:25:24;18.00;50.10
64987;DHT22;67903;52.108;9.358;2023-04-23T10:28:12;17.90;49.90
64987;DHT22;67903;52.108;9.358;2023-04-23T10:31:02;17.90;50.30
64987;DHT22;67903;52.108;9.358;2023-04-23T10:33:52;18.00;49.50
64987;DHT22;67903;52.108;9.358;2023-04-23T10:36:45;18.20;49.50
64987;DHT22;67903;52.108;9.358;2023-04-23T10:39:33;18.40;49.70
64987;DHT22;67903;52.108;9.358;2023-04-23T10:42:21;18.60;48.70
64987;DHT22;67903;52.108;9.358;2023-04-23T10:45:18;19.20;48.10
64987;DHT22;67903;52.108;9.358;2023-04-23T10:48:11;19.60;47.20
64987;DHT22;67903;52.108;9.358;2023-04-23T10:50:58;19.70;46.10
64987;DHT22;67903;52.108;9.358;2023-04-23T10:54:06;19.90;46.40
64987;DHT22;67903;52.108;9.358;2023-04-23T10:57:00;19.70;45.10
64987;DHT22;67903;52.108;9.358;2023-04-23T10:59:53;19.30;46.00
64987;DHT22;67903;52.108;9.358;2023-04-23T11:02:43;19.00;46.80
64987;DHT22;67903;52.108;9.358;2023-04-23T11:05:34;18.90;47.40
64987;DHT22;67903;52.108;9.358;2023-04-23T11:08:21;18.90;47.50
64987;DHT22;67903;52.108;9.358;2023-04-23T11:11:08;18.70;47.60
64987;DHT22;67903;52.108;9.358;2023-04-23T11:13:55;18.80;47.50
64987;DHT22;67903;52.108;9.358;2023-04-23T11:16:44;18.90;47.80
64987;DHT22;67903;52.108;9.358;2023-04-23T11:19:38;19.20;47.50
64987;DHT22;67903;52.108;9.358;2023-04-23T11:22:33;19.50;46.90
64987;DHT22;67903;52.108;9.358;2023-04-23T11:25:22;19.50;46.20
64987;DHT22;67903;52.108;9.358;2023-04-23T11:28:09;19.60;46.20
64987;DHT22;67903;52.108;9.358;2023-04-23T11:30:56;19.40;46.10
64987;DHT22;67903;52.108;9.358;2023-04-23T11:33:45;19.40;46.20
64987;DHT22;67903;52.108;9.358;2023-04-23T11:36:32;19.50;46.00
64987;DHT22;67903;52.108;9.358;2023-04-23T11:39:22;19.10;46.60
64987;DHT22;67903;52.108;9.358;2023-04-23T11:42:13;19.30;46.50
64987;DHT22;67903;52.108;9.358;2023-04-23T11:45:01;19.50;46.20
64987;DHT22;67903;52.108;9.358;2023-04-23T11:47:49;19.70;46.10
64987;DHT22;67903;52.108;9.358;2023-04-23T11:50:40;20.00;45.80
64987;DHT22;67903;52.108;9.358;2023-04-23T11:53:27;20.30;45.30
64987;DHT22;67903;52.108;9.358;2023-04-23T11:56:18;20.00;45.30
64987;DHT22;67903;52.108;9.358;2023-04-23T11:59:06;20.20;45.00
64987;DHT22;67903;52.108;9.358;2023-04-23T12:01:57;20.30;44.80
64987;DHT22;67903;52.108;9.358;2023-04-23T12:04:44;20.20;45.30
64987;DHT22;67903;52.108;9.358;2023-04-23T12:07:31;20.30;44.90
64987;DHT22;67903;52.108;9.358;2023-04-23T12:10:20;20.50;44.10
64987;DHT22;67903;52.108;9.358;2023-04-23T12:13:12;20.30;45.80
64987;DHT22;67903;52.108;9.358;2023-04-23T12:16:02;20.10;46.60
64987;DHT22;67903;52.108;9.358;2023-04-23T12:18:52;19.70;47.10
64987;DHT22;67903;52.108;9.358;2023-04-23T12:21:52;19.50;48.00
64987;DHT22;67903;52.108;9.358;2023-04-23T12:24:46;19.40;48.30
64987;DHT22;67903;52.108;9.358;2023-04-23T12:27:38;19.30;48.90
64987;DHT22;67903;52.108;9.358;2023-04-23T12:30:31;18.00;79.50
64987;DHT22;67903;52.108;9.358;2023-04-23T12:33:19;14.80;86.10
64987;DHT22;67903;52.108;9.358;2023-04-23T12:36:10;12.80;88.20
64987;DHT22;67903;52.108;9.358;2023-04-23T12:39:32;11.90;91.10
64987;DHT22;67903;52.108;9.358;2023-04-23T12:42:22;11.30;92.80
64987;DHT22;67903;52.108;9.358;2023-04-23T12:45:09;10.80;93.70
64987;DHT22;67903;52.108;9.358;2023-04-23T12:47:56;11.00;95.00
64987;DHT22;67903;52.108;9.358;2023-04-23T12:50:47;11.10;95.50
64987;DHT22;67903;52.108;9.358;2023-04-23T12:53:34;11.40;95.90
64987;DHT22;67903;52.108;9.358;2023-04-23T12:56:21;11.50;96.20
64987;DHT22;67903;52.108;9.358;2023-04-23T12:59:08;11.70;96.50
64987;DHT22;67903;52.108;9.358;2023-04-23T13:01:56;11.60;96.60
64987;DHT22;67903;52.108;9.358;2023-04-23T13:04:43;11.70;96.70
64987;DHT22;67903;52.108;9.358;2023-04-23T13:07:30;11.70;96.90
64987;DHT22;67903;52.108;9.358;2023-04-23T13:10:17;12.00;97.00
64987;DHT22;67903;52.108;9.358;2023-04-23T13:13:04;12.00;97.20
64987;DHT22;67903;52.108;9.358;2023-04-23T13:15:52;12.10;97.30
64987;DHT22;67903;52.108;9.358;2023-04-23T13:18:39;12.00;97.30
64987;DHT22;67903;52.108;9.358;2023-04-23T13:21:26;12.10;97.40
64987;DHT22;67903;52.108;9.358;2023-04-23T13:24:13;12.20;97.50
64987;DHT22;67903;52.108;9.358;2023-04-23T13:27:01;12.30;97.70
64987;DHT22;67903;52.108;9.358;2023-04-23T13:29:48;12.60;97.80
64987;DHT22;67903;52.108;9.358;2023-04-23T13:32:35;12.70;97.80
64987;DHT22;67903;52.108;9.358;2023-04-23T13:35:22;13.10;98.00
64987;DHT22;67903;52.108;9.358;2023-04-23T13:38:09;13.50;98.10
64987;DHT22;67903;52.108;9.358;2023-04-23T13:40:57;13.50;98.20
64987;DHT22;67903;52.108;9.358;2023-04-23T13:43:44;13.50;98.20
64987;DHT22;67903;52.108;9.358;2023-04-23T13:46:31;13.50;98.20
64987;DHT22;67903;52.108;9.358;2023-04-23T13:49:18;13.70;98.30
64987;DHT22;67903;52.108;9.358;2023-04-23T13:52:06;13.70;98.30
64987;DHT22;67903;52.108;9.358;2023-04-23T13:54:53;14.10;98.50
64987;DHT22;67903;52.108;9.358;2023-04-23T13:57:42;14.10;98.60
64987;DHT22;67903;52.108;9.358;2023-04-23T14:00:29;14.60;98.70
64987;DHT22;67903;52.108;9.358;2023-04-23T14:03:17;14.50;98.70
64987;DHT22;67903;52.108;9.358;2023-04-23T14:06:06;14.90;98.80
64987;DHT22;67903;52.108;9.358;2023-04-23T14:08:53;14.40;98.70
64987;DHT22;67903;52.108;9.358;2023-04-23T14:11:40;14.10;98.70
64987;DHT22;67903;52.108;9.358;2023-04-23T14:14:27;14.50;98.80
64987;DHT22;67903;52.108;9.358;2023-04-23T14:17:15;14.70;98.80
64987;DHT22;67903;52.108;9.358;2023-04-23T14:20:02;14.00;98.60
64987;DHT22;67903;52.108;9.358;2023-04-23T14:22:57;14.40;98.90
64987;DHT22;67903;52.108;9.358;2023-04-23T14:25:51;14.90;99.00
64987;DHT22;67903;52.108;9.358;2023-04-23T14:28:43;14.60;99.20
64987;DHT22;67903;52.108;9.358;2023-04-23T14:31:30;15.40;99.50
64987;DHT22;67903;52.108;9.358;2023-04-23T14:34:17;16.00;99.80
64987;DHT22;67903;52.108;9.358;2023-04-23T14:37:04;15.40;99.50
64987;DHT22;67903;52.108;9.358;2023-04-23T14:39:52;15.60;99.70
64987;DHT22;67903;52.108;9.358;2023-04-23T14:42:39;15.00;99.40
64987;DHT22;67903;52.108;9.358;2023-04-23T14:45:26;15.00;99.30
64987;DHT22;67903;52.108;9.358;2023-04-23T14:48:17;15.20;99.40
64987;DHT22;67903;52.108;9.358;2023-04-23T14:51:04;15.20;99.20
64987;DHT22;67903;52.108;9.358;2023-04-23T14:53:51;15.00;98.70
64987;DHT22;67903;52.108;9.358;2023-04-23T14:56:41;15.00;98.60
64987;DHT22;67903;52.108;9.358;2023-04-23T14:59:28;15.20;98.50
64987;DHT22;67903;52.108;9.358;2023-04-23T15:02:16;15.40;98.00
64987;DHT22;67903;52.108;9.358;2023-04-23T15:05:03;15.50;97.80
64987;DHT22;67903;52.108;9.358;2023-04-23T15:07:50;15.80;97.90
64987;DHT22;67903;52.108;9.358;2023-04-23T15:10:39;15.60;97.10
64987;DHT22;67903;52.108;9.358;2023-04-23T15:16:32;15.30;97.20
64987;DHT22;67903;52.108;9.358;2023-04-23T15:19:22;15.00;96.80
64987;DHT22;67903;52.108;9.358;2023-04-23T15:22:09;15.00;97.20
64987;DHT22;67903;52.108;9.358;2023-04-23T15:24:56;15.00;97.50
64987;DHT22;67903;52.108;9.358;2023-04-23T15:27:44;15.60;97.70
64987;DHT22;67903;52.108;9.358;2023-04-23T15:30:31;15.80;97.50
64987;DHT22;67903;52.108;9.358;2023-04-23T15:33:19;16.00;97.50
64987;DHT22;67903;52.108;9.358;2023-04-23T15:36:07;15.60;96.90
64987;DHT22;67903;52.108;9.358;2023-04-23T15:38:54;15.80;97.50
64987;DHT22;67903;52.108;9.358;2023-04-23T15:41:41;16.40;97.90
64987;DHT22;67903;52.108;9.358;2023-04-23T15:44:32;16.60;97.50
64987;DHT22;67903;52.108;9.358;2023-04-23T15:47:20;16.20;96.50
64987;DHT22;67903;52.108;9.358;2023-04-23T15:50:08;16.10;96.50
64987;DHT22;67903;52.108;9.358;2023-04-23T15:52:56;16.00;96.70
64987;DHT22;67903;52.108;9.358;2023-04-23T15:55:44;16.20;97.00
64987;DHT22;67903;52.108;9.358;2023-04-23T15:58:32;16.20;97.10
64987;DHT22;67903;52.108;9.358;2023-04-23T16:01:19;16.20;97.10
64987;DHT22;67903;52.108;9.358;2023-04-23T16:04:06;16.00;96.60
64987;DHT22;67903;52.108;9.358;2023-04-23T16:06:58;15.80;96.20
64987;DHT22;67903;52.108;9.358;2023-04-23T16:09:45;15.50;95.90
64987;DHT22;67903;52.108;9.358;2023-04-23T16:12:32;15.30;95.80
64987;DHT22;67903;52.108;9.358;2023-04-23T16:15:20;15.20;95.80
64987;DHT22;67903;52.108;9.358;2023-04-23T16:18:07;15.20;96.10
64987;DHT22;67903;52.108;9.358;2023-04-23T16:20:54;15.10;96.10
64987;DHT22;67903;52.108;9.358;2023-04-23T16:23:41;15.00;95.60
64987;DHT22;67903;52.108;9.358;2023-04-23T16:26:28;14.90;96.10
64987;DHT22;67903;52.108;9.358;2023-04-23T16:29:15;14.80;95.80
64987;DHT22;67903;52.108;9.358;2023-04-23T16:32:08;14.80;96.40
64987;DHT22;67903;52.108;9.358;2023-04-23T16:34:56;14.80;96.40
64987;DHT22;67903;52.108;9.358;2023-04-23T16:37:43;14.90;96.60
64987;DHT22;67903;52.108;9.358;2023-04-23T16:40:30;14.70;95.90
64987;DHT22;67903;52.108;9.358;2023-04-23T16:43:17;14.70;96.10
64987;DHT22;67903;52.108;9.358;2023-04-23T16:46:04;14.70;96.00
64987;DHT22;67903;52.108;9.358;2023-04-23T16:48:51;14.70;95.80
64987;DHT22;67903;52.108;9.358;2023-04-23T16:51:38;14.60;95.80
64987;DHT22;67903;52.108;9.358;2023-04-23T16:54:25;14.60;95.90
64987;DHT22;67903;52.108;9.358;2023-04-23T16:57:12;14.60;95.90
64987;DHT22;67903;52.108;9.358;2023-04-23T16:59:59;14.60;95.90
64987;DHT22;67903;52.108;9.358;2023-04-23T17:02:47;14.60;96.10
64987;DHT22;67903;52.108;9.358;2023-04-23T17:05:37;14.60;96.00
64987;DHT22;67903;52.108;9.358;2023-04-23T17:08:24;14.60;95.90
64987;DHT22;67903;52.108;9.358;2023-04-23T17:11:12;14.50;95.70
64987;DHT22;67903;52.108;9.358;2023-04-23T17:13:59;14.50;95.60
64987;DHT22;67903;52.108;9.358;2023-04-23T17:16:46;14.60;95.80
64987;DHT22;67903;52.108;9.358;2023-04-23T17:19:33;14.60;95.80
64987;DHT22;67903;52.108;9.358;2023-04-23T17:22:21;14.70;95.90
64987;DHT22;67903;52.108;9.358;2023-04-23T17:25:08;14.70;95.90
64987;DHT22;67903;52.108;9.358;2023-04-23T17:27:55;14.70;95.70
64987;DHT22;67903;52.108;9.358;2023-04-23T17:30:43;14.70;95.50
64987;DHT22;67903;52.108;9.358;2023-04-23T17:33:31;14.60;95.40
64987;DHT22;67903;52.108;9.358;2023-04-23T17:36:18;14.60;95.70
64987;DHT22;67903;52.108;9.358;2023-04-23T17:39:05;14.60;95.70
64987;DHT22;67903;52.108;9.358;2023-04-23T17:41:53;14.60;95.30
64987;DHT22;67903;52.108;9.358;2023-04-23T17:44:41;14.50;94.60
64987;DHT22;67903;52.108;9.358;2023-04-23T17:47:29;14.40;95.10